createdAt,value
2017-09-23T00:01:30.219Z,82.90
2017-09-23T00:03:59.082Z,82.70
2017-09-23T00:06:27.943Z,82.60
2017-09-23T00:08:56.823Z,82.70
2017-09-23T00:11:25.676Z,82.60
2017-09-23T00:13:54.555Z,82.80
2017-09-23T00:16:23.419Z,83.00
2017-09-23T00:18:53.069Z,82.80
2017-09-23T00:21:21.940Z,82.80
2017-09-23T00:23:50.802Z,82.70
2017-09-23T00:26:19.662Z,82.70
2017-09-23T00:28:48.979Z,82.60
2017-09-23T00:31:17.839Z,82.50
2017-09-23T00:33:46.700Z,82.40
2017-09-23T00:36:15.561Z,82.40
2017-09-23T00:38:44.419Z,82.50
2017-09-23T00:41:13.281Z,82.60
2017-09-23T00:43:41.814Z,82.70
2017-09-23T00:46:10.674Z,82.70
2017-09-23T00:48:39.542Z,82.70
2017-09-23T00:51:07.708Z,83.50
2017-09-23T00:53:36.636Z,83.30
2017-09-23T00:56:05.514Z,83.30
2017-09-23T00:58:34.366Z,83.20
2017-09-23T01:01:03.091Z,83.10
2017-09-23T01:03:31.960Z,83.00
2017-09-23T01:06:01.588Z,83.10
2017-09-23T01:08:30.103Z,82.90
2017-09-23T01:10:58.264Z,82.90
2017-09-23T01:13:27.120Z,82.90
2017-09-23T01:15:55.983Z,83.00
2017-09-23T01:18:24.491Z,83.30
2017-09-23T01:20:54.128Z,83.40
2017-09-23T01:23:22.659Z,83.30
2017-09-23T01:25:51.195Z,83.60
2017-09-23T01:28:20.080Z,84.20
2017-09-23T01:30:48.264Z,84.10
2017-09-23T01:33:17.123Z,84.20
2017-09-23T01:35:45.997Z,84.30
2017-09-23T01:38:15.626Z,85.00
2017-09-23T01:40:45.247Z,84.40
2017-09-23T01:43:14.115Z,84.30
2017-09-23T01:45:43.744Z,84.40
2017-09-23T01:48:12.592Z,84.30
2017-09-23T01:50:41.460Z,84.40
2017-09-23T01:53:11.096Z,84.50
2017-09-23T01:55:39.972Z,84.50
2017-09-23T01:58:08.842Z,84.70
2017-09-23T02:00:37.728Z,84.70
2017-09-23T02:03:06.581Z,84.60
2017-09-23T02:05:35.437Z,84.70
2017-09-23T02:08:04.318Z,84.70
2017-09-23T02:10:33.186Z,84.80
2017-09-23T02:13:02.052Z,84.80
2017-09-23T02:15:31.688Z,85.00
2017-09-23T02:18:00.590Z,84.90
2017-09-23T02:20:29.706Z,85.30
2017-09-23T02:22:58.567Z,85.60
2017-09-23T02:25:27.435Z,85.70
2017-09-23T02:28:06.169Z,85.90
2017-09-23T02:30:35.300Z,86.00
2017-09-23T02:33:04.171Z,86.10
2017-09-23T02:35:33.041Z,86.60
2017-09-23T02:38:01.933Z,86.70
2017-09-23T02:40:30.837Z,86.50
2017-09-23T02:42:59.700Z,86.30
2017-09-23T02:45:29.343Z,86.10
2017-09-23T02:47:58.329Z,86.10
2017-09-23T02:50:27.191Z,85.90
2017-09-23T02:52:56.824Z,85.90
2017-09-23T02:55:25.685Z,85.90
2017-09-23T02:57:54.544Z,86.20
2017-09-23T03:00:23.503Z,86.60
2017-09-23T03:02:52.371Z,87.50
2017-09-23T03:05:21.979Z,87.90
2017-09-23T03:07:51.595Z,87.90
2017-09-23T03:10:21.225Z,87.80
2017-09-23T03:12:50.076Z,87.70
2017-09-23T03:15:19.716Z,88.00
2017-09-23T03:17:48.588Z,87.40
2017-09-23T03:20:18.215Z,87.50
2017-09-23T03:22:47.075Z,87.40
2017-09-23T03:25:16.704Z,87.40
2017-09-23T03:27:46.327Z,87.40
2017-09-23T03:30:15.188Z,87.40
2017-09-23T03:32:44.824Z,87.10
2017-09-23T03:35:13.676Z,87.10
2017-09-23T03:37:42.540Z,87.50
2017-09-23T03:40:11.400Z,87.60
2017-09-23T03:42:40.216Z,87.60
2017-09-23T03:45:09.079Z,87.80
2017-09-23T03:47:37.934Z,88.80
2017-09-23T03:50:06.799Z,88.20
2017-09-23T03:52:35.656Z,88.20
2017-09-23T03:55:04.515Z,88.20
2017-09-23T03:57:33.378Z,88.30
2017-09-23T04:00:02.231Z,88.10
2017-09-23T04:02:31.847Z,88.70
2017-09-23T04:05:00.696Z,89.10
2017-09-23T04:07:29.544Z,89.10
2017-09-23T04:09:58.405Z,89.60
2017-09-23T04:12:27.252Z,88.90
2017-09-23T04:14:56.101Z,88.70
2017-09-23T04:17:24.775Z,88.70
2017-09-23T04:19:53.627Z,88.50
2017-09-23T04:22:22.488Z,88.50
2017-09-23T04:24:51.873Z,88.40
2017-09-23T04:27:20.725Z,88.60
2017-09-23T04:29:50.342Z,88.80
2017-09-23T04:32:19.970Z,88.80
2017-09-23T04:34:48.824Z,88.80
2017-09-23T04:37:17.676Z,89.00
2017-09-23T04:39:46.536Z,88.80
2017-09-23T04:42:15.387Z,89.10
2017-09-23T04:44:44.241Z,89.10
2017-09-23T04:47:14.079Z,89.30
2017-09-23T04:49:42.933Z,89.30
2017-09-23T04:52:11.797Z,89.40
2017-09-23T04:54:41.411Z,89.70
2017-09-23T04:57:11.057Z,89.50
2017-09-23T04:59:39.928Z,89.50
2017-09-23T05:02:08.798Z,89.40
2017-09-23T05:04:38.413Z,89.30
2017-09-23T05:07:08.064Z,89.30
2017-09-23T05:12:11.812Z,89.10
2017-09-23T05:14:40.671Z,89.00
2017-09-23T05:17:09.535Z,89.00
2017-09-23T05:19:38.413Z,88.90
2017-09-23T05:22:08.036Z,89.10
2017-09-23T05:24:36.894Z,89.00
2017-09-23T05:27:05.744Z,89.00
2017-09-23T05:29:35.403Z,89.00
2017-09-23T05:32:05.039Z,89.00
2017-09-23T05:34:33.891Z,89.00
2017-09-23T05:37:02.757Z,89.40
2017-09-23T05:39:31.617Z,89.30
2017-09-23T05:42:00.478Z,89.20
2017-09-23T05:44:30.101Z,89.20
2017-09-23T05:46:59.727Z,89.00
2017-09-23T05:49:28.597Z,89.00
2017-09-23T05:51:58.211Z,88.60
2017-09-23T05:54:27.834Z,88.60
2017-09-23T05:56:56.684Z,88.60
2017-09-23T05:59:25.533Z,89.40
2017-09-23T06:01:54.399Z,89.10
2017-09-23T06:04:23.296Z,89.50
2017-09-23T06:06:52.161Z,90.10
2017-09-23T06:09:21.595Z,89.60
2017-09-23T06:11:50.451Z,89.60
2017-09-23T06:14:19.306Z,89.80
2017-09-23T06:16:48.163Z,89.80
2017-09-23T06:19:17.088Z,89.90
2017-09-23T06:21:46.023Z,89.60
2017-09-23T06:24:15.651Z,89.40
2017-09-23T06:26:44.315Z,89.40
2017-09-23T06:29:13.751Z,89.60
2017-09-23T06:31:42.605Z,89.50
2017-09-23T06:34:11.308Z,89.70
2017-09-23T06:36:40.938Z,89.40
2017-09-23T06:39:09.804Z,89.40
2017-09-23T06:41:39.434Z,89.60
2017-09-23T06:44:09.317Z,89.60
2017-09-23T06:46:38.948Z,89.20
2017-09-23T06:49:07.829Z,89.10
2017-09-23T06:51:37.453Z,88.90
2017-09-23T06:54:06.127Z,88.80
2017-09-23T06:56:36.110Z,88.80
2017-09-23T06:59:05.004Z,88.70
2017-09-23T07:01:33.876Z,88.60
2017-09-23T07:04:02.733Z,88.30
2017-09-23T07:06:31.600Z,88.10
2017-09-23T07:09:01.227Z,88.70
2017-09-23T07:11:30.104Z,88.60
2017-09-23T07:13:59.848Z,87.30
2017-09-23T07:16:28.717Z,87.20
2017-09-23T07:18:57.595Z,86.90
2017-09-23T07:21:27.259Z,86.80
2017-09-23T07:23:56.125Z,86.70
2017-09-23T07:26:24.797Z,86.30
2017-09-23T07:28:55.442Z,86.20
2017-09-23T07:31:24.318Z,86.20
2017-09-23T07:33:53.944Z,85.60
2017-09-23T07:36:22.807Z,85.60
2017-09-23T07:38:51.676Z,85.00
2017-09-23T07:41:20.572Z,84.60
2017-09-23T07:43:49.444Z,84.10
2017-09-23T07:46:18.317Z,83.30
2017-09-23T07:48:47.181Z,82.80
2017-09-23T07:51:16.815Z,81.60
2017-09-23T07:53:45.724Z,81.60
2017-09-23T07:56:14.588Z,81.00
2017-09-23T07:58:43.448Z,80.50
2017-09-23T08:01:13.878Z,80.20
2017-09-23T08:03:43.514Z,79.60
2017-09-23T08:06:12.396Z,79.60
2017-09-23T08:08:41.255Z,78.80
2017-09-23T08:11:10.118Z,78.60
2017-09-23T08:13:38.790Z,78.10
2017-09-23T08:16:07.652Z,77.40
2017-09-23T08:18:37.271Z,76.10
2017-09-23T08:21:05.783Z,76.10
2017-09-23T08:23:36.144Z,74.80
2017-09-23T08:26:05.811Z,74.60
2017-09-23T08:28:34.659Z,74.40
2017-09-23T08:31:04.322Z,73.00
2017-09-23T08:33:33.863Z,73.00
2017-09-23T08:36:03.515Z,72.10
2017-09-23T08:38:32.382Z,72.10
2017-09-23T08:41:02.017Z,71.10
2017-09-23T08:43:30.688Z,71.00
2017-09-23T08:45:59.544Z,70.80
2017-09-23T08:48:28.419Z,70.40
2017-09-23T08:50:57.339Z,69.70
2017-09-23T08:53:26.221Z,69.60
2017-09-23T08:55:54.896Z,69.10
2017-09-23T08:58:23.759Z,69.10
2017-09-23T09:00:52.597Z,69.00
2017-09-23T09:03:22.215Z,68.30
2017-09-23T09:05:52.567Z,67.50
2017-09-23T09:08:21.448Z,67.40
2017-09-23T09:10:50.319Z,66.90
2017-09-23T09:13:19.952Z,66.20
2017-09-23T09:15:50.213Z,66.10
2017-09-23T09:18:19.077Z,65.90
2017-09-23T09:20:47.962Z,65.50
2017-09-23T09:23:16.828Z,65.10
2017-09-23T09:25:46.795Z,64.70
2017-09-23T09:28:15.850Z,64.60
2017-09-23T09:30:44.717Z,64.10
2017-09-23T09:33:13.587Z,63.80
2017-09-23T09:35:42.463Z,63.60
2017-09-23T09:38:11.214Z,63.50
2017-09-23T09:40:40.071Z,62.50
2017-09-23T09:43:08.932Z,62.30
2017-09-23T09:45:38.522Z,62.40
2017-09-23T09:48:07.393Z,62.40
2017-09-23T09:50:36.261Z,61.70
2017-09-23T09:53:04.786Z,61.40
2017-09-23T09:55:33.502Z,60.90
2017-09-23T09:58:02.224Z,60.00
2017-09-23T10:00:31.851Z,60.40
2017-09-23T10:03:01.487Z,60.10
2017-09-23T10:05:30.349Z,59.90
2017-09-23T10:07:59.993Z,58.80
2017-09-23T10:10:28.893Z,58.70
2017-09-23T10:12:57.600Z,58.70
2017-09-23T10:15:27.623Z,58.50
2017-09-23T10:17:57.241Z,58.50
2017-09-23T10:20:26.098Z,58.50
2017-09-23T10:22:56.621Z,57.60
2017-09-23T10:25:25.664Z,57.60
2017-09-23T10:27:54.531Z,57.80
2017-09-23T10:30:23.436Z,57.80
2017-09-23T10:32:52.289Z,57.80
2017-09-23T10:35:21.159Z,58.20
2017-09-23T10:37:50.028Z,57.70
2017-09-23T10:40:19.684Z,57.50
2017-09-23T10:42:48.944Z,57.50
2017-09-23T10:45:18.550Z,56.40
2017-09-23T10:47:48.178Z,56.60
2017-09-23T10:50:17.040Z,56.60
2017-09-23T10:52:45.879Z,56.30
2017-09-23T10:55:14.712Z,55.40
2017-09-23T10:57:43.578Z,55.20
2017-09-23T11:00:12.440Z,55.40
2017-09-23T11:02:41.291Z,55.70
2017-09-23T11:05:10.132Z,55.50
2017-09-23T11:07:38.988Z,55.80
2017-09-23T11:10:08.599Z,56.00
2017-09-23T11:12:38.224Z,55.80
2017-09-23T11:15:06.928Z,55.80
2017-09-23T11:17:35.790Z,55.90
2017-09-23T11:20:05.420Z,55.80
2017-09-23T11:22:34.285Z,55.80
2017-09-23T11:25:03.157Z,55.80
2017-09-23T11:27:32.786Z,56.20
2017-09-23T11:30:02.397Z,56.20
2017-09-23T11:32:32.021Z,56.10
2017-09-23T11:35:00.909Z,56.00
2017-09-23T11:37:29.757Z,56.10
2017-09-23T11:39:58.264Z,55.90
2017-09-23T11:42:27.886Z,56.30
2017-09-23T11:44:56.743Z,56.20
2017-09-23T11:47:25.677Z,56.40
2017-09-23T11:49:54.523Z,56.40
2017-09-23T11:52:23.389Z,56.40
2017-09-23T11:54:52.231Z,56.60
2017-09-23T11:57:21.860Z,56.90
2017-09-23T11:59:50.724Z,56.80
2017-09-23T12:02:20.377Z,56.40
2017-09-23T12:04:49.244Z,56.40
2017-09-23T12:07:18.103Z,56.40
2017-09-23T12:09:46.777Z,56.90
2017-09-23T12:12:15.636Z,56.80
2017-09-23T12:14:44.487Z,56.70
2017-09-23T12:17:14.101Z,56.60
2017-09-23T12:19:44.044Z,56.20
2017-09-23T12:22:12.899Z,56.20
2017-09-23T12:24:41.747Z,56.40
2017-09-23T12:27:10.607Z,56.30
2017-09-23T12:29:39.471Z,56.30
2017-09-23T12:32:09.105Z,56.20
2017-09-23T12:34:37.982Z,56.20
2017-09-23T12:37:09.487Z,56.10
2017-09-23T12:39:38.246Z,56.10
2017-09-23T12:42:07.056Z,56.00
2017-09-23T12:44:36.090Z,55.70
2017-09-23T12:47:05.740Z,55.70
2017-09-23T12:49:34.667Z,55.00
2017-09-23T12:52:03.571Z,54.80
2017-09-23T12:54:33.137Z,55.10
2017-09-23T12:57:02.028Z,55.30
2017-09-23T13:00:07.562Z,55.20
2017-09-23T13:02:36.451Z,55.20
2017-09-23T13:10:02.926Z,55.00
2017-09-23T13:12:31.777Z,54.70
2017-09-23T13:15:00.642Z,54.80
2017-09-23T13:20:02.504Z,54.60
2017-09-23T13:22:32.015Z,55.10
2017-09-23T13:25:00.961Z,55.30
2017-09-23T13:27:30.582Z,55.80
2017-09-23T13:30:00.202Z,55.10
2017-09-23T13:32:28.876Z,55.10
2017-09-23T13:34:58.404Z,55.40
2017-09-23T13:37:27.397Z,55.40
2017-09-23T13:39:56.284Z,55.40
2017-09-23T13:42:25.585Z,55.50
2017-09-23T13:44:54.433Z,55.70
2017-09-23T13:47:23.364Z,56.10
2017-09-23T13:49:53.257Z,56.20
2017-09-23T13:52:22.925Z,56.40
2017-09-23T13:54:51.828Z,56.40
2017-09-23T13:57:20.701Z,56.90
2017-09-23T13:59:50.371Z,57.00
2017-09-23T14:02:20.002Z,57.60
2017-09-23T14:04:48.874Z,57.50
2017-09-23T14:07:18.519Z,57.40
2017-09-23T14:09:47.377Z,57.30
2017-09-23T14:12:16.256Z,57.60
2017-09-23T14:14:45.920Z,57.80
2017-09-23T14:17:14.822Z,57.80
2017-09-23T14:19:44.729Z,57.70
2017-09-23T14:22:15.874Z,58.20
2017-09-23T14:24:45.586Z,58.20
2017-09-23T14:27:14.811Z,58.20
2017-09-23T14:29:44.652Z,58.40
2017-09-23T14:32:13.569Z,58.30
2017-09-23T14:34:43.227Z,58.60
2017-09-23T14:37:12.098Z,58.70
2017-09-23T14:39:40.983Z,59.50
2017-09-23T14:42:09.858Z,59.00
2017-09-23T14:44:38.742Z,59.20
2017-09-23T14:47:07.824Z,59.20
2017-09-23T14:49:36.705Z,59.40
2017-09-23T14:52:06.330Z,59.20
2017-09-23T14:54:36.215Z,59.20
2017-09-23T14:57:05.843Z,59.50
2017-09-23T14:59:35.444Z,59.50
2017-09-23T15:02:04.389Z,59.40
2017-09-23T15:04:34.712Z,59.40
2017-09-23T15:07:03.912Z,59.40
2017-09-23T15:09:34.748Z,59.40
2017-09-23T15:12:03.623Z,59.40
2017-09-23T15:14:36.420Z,59.40
2017-09-23T15:17:05.930Z,59.50
2017-09-23T15:19:34.764Z,59.50
2017-09-23T15:22:05.727Z,59.80
2017-09-23T15:24:34.579Z,59.80
2017-09-23T15:27:03.439Z,60.10
2017-09-23T15:29:32.319Z,60.30
2017-09-23T15:32:01.176Z,60.30
2017-09-23T15:34:31.908Z,60.70
2017-09-23T15:37:04.456Z,61.20
2017-09-23T15:39:33.696Z,61.80
2017-09-23T15:42:03.420Z,61.70
2017-09-23T15:44:32.288Z,61.60
2017-09-23T15:47:01.721Z,60.90
2017-09-23T15:49:37.070Z,60.80
2017-09-23T15:52:05.929Z,60.90
2017-09-23T15:54:36.792Z,60.70
2017-09-23T15:57:05.455Z,60.50
2017-09-23T15:59:34.797Z,60.80
2017-09-23T16:02:03.700Z,60.60
2017-09-23T16:04:32.620Z,60.50
2017-09-23T16:07:02.558Z,60.70
2017-09-23T16:09:32.075Z,61.10
2017-09-23T16:12:02.532Z,61.00
2017-09-23T16:14:32.170Z,61.40
2017-09-23T16:17:01.050Z,61.30
2017-09-23T16:19:29.933Z,61.20
2017-09-23T16:21:58.788Z,62.10
2017-09-23T16:24:29.026Z,62.30
2017-09-23T16:26:58.202Z,62.20
2017-09-23T16:29:28.814Z,63.50
2017-09-23T16:31:57.669Z,63.50
2017-09-23T16:34:26.555Z,64.30
2017-09-23T16:36:55.444Z,65.10
2017-09-23T16:39:24.352Z,65.50
2017-09-23T16:41:53.220Z,65.40
2017-09-23T16:44:22.051Z,65.30
2017-09-23T16:46:50.882Z,65.80
2017-09-23T16:49:20.683Z,66.30
2017-09-23T16:51:49.644Z,67.20
2017-09-23T16:54:18.792Z,67.80
2017-09-23T16:56:47.705Z,68.30
2017-09-23T16:59:16.561Z,69.00
2017-09-23T17:01:46.178Z,70.00
2017-09-23T17:04:15.398Z,70.00
2017-09-23T17:06:44.939Z,69.80
2017-09-23T17:09:14.604Z,70.40
2017-09-23T17:11:43.454Z,70.90
2017-09-23T17:14:12.304Z,71.00
2017-09-23T17:16:41.168Z,71.80
2017-09-23T17:19:10.851Z,72.10
2017-09-23T17:21:41.748Z,72.80
2017-09-23T17:24:16.341Z,72.30
2017-09-23T17:26:45.703Z,72.80
2017-09-23T17:29:15.873Z,73.10
2017-09-23T17:31:44.893Z,73.40
2017-09-23T17:34:13.764Z,73.10
2017-09-23T17:36:43.435Z,72.80
2017-09-23T17:39:13.816Z,74.00
2017-09-23T17:41:43.481Z,74.00
2017-09-23T17:44:13.315Z,74.10
2017-09-23T17:46:42.174Z,73.90
2017-09-23T17:49:11.027Z,73.70
2017-09-23T17:51:40.672Z,74.30
2017-09-23T17:54:10.285Z,74.70
2017-09-23T17:56:39.138Z,74.20
2017-09-23T17:59:09.161Z,74.60
2017-09-23T18:01:44.666Z,75.40
2017-09-23T18:04:13.526Z,74.50
2017-09-23T18:06:42.378Z,74.40
2017-09-23T18:09:12.770Z,75.10
2017-09-23T18:11:42.059Z,75.20
2017-09-23T18:14:11.380Z,75.80
2017-09-23T18:19:16.498Z,75.10
2017-09-23T18:21:46.126Z,75.10
2017-09-23T18:24:15.620Z,76.10
2017-09-23T18:26:45.613Z,76.10
2017-09-23T18:29:14.473Z,76.70
2017-09-23T18:31:44.220Z,77.80
2017-09-23T18:34:14.114Z,78.10
2017-09-23T18:36:43.008Z,78.40
2017-09-23T18:39:14.237Z,79.10
2017-09-23T18:41:45.364Z,78.90
2017-09-23T18:44:16.144Z,79.30
2017-09-23T18:46:45.008Z,79.40
2017-09-23T18:49:14.247Z,79.70
2017-09-23T18:51:43.108Z,79.90
2017-09-23T18:54:11.980Z,80.20
2017-09-23T18:56:40.256Z,80.90
2017-09-23T18:59:12.019Z,81.30
2017-09-23T19:01:42.059Z,81.80
2017-09-23T19:04:10.915Z,82.50
2017-09-23T19:06:39.787Z,82.60
2017-09-23T19:09:09.574Z,82.60
2017-09-23T19:11:38.521Z,82.80
2017-09-23T19:14:07.376Z,83.10
2017-09-23T19:16:36.241Z,83.00
2017-09-23T19:19:05.301Z,82.80
2017-09-23T19:21:34.221Z,82.70
2017-09-23T19:24:02.974Z,82.80
2017-09-23T19:26:31.853Z,83.00
2017-09-23T19:29:01.516Z,83.30
2017-09-23T19:31:30.809Z,83.30
2017-09-23T19:33:59.660Z,83.80
2017-09-23T19:36:29.499Z,83.90
2017-09-23T19:38:58.351Z,83.90
2017-09-23T19:41:27.215Z,84.00
2017-09-23T19:43:56.064Z,84.10
2017-09-23T19:46:25.792Z,84.00
2017-09-23T19:48:59.713Z,84.10
2017-09-23T19:54:08.864Z,84.40
2017-09-23T19:56:41.839Z,84.60
2017-09-23T20:04:23.989Z,86.10
2017-09-23T20:06:52.942Z,86.10
2017-09-23T20:09:22.313Z,86.00
2017-09-23T20:14:28.734Z,86.70
2017-09-23T20:17:04.007Z,86.60
2017-09-23T20:22:31.387Z,87.20
2017-09-23T20:27:40.889Z,87.40
2017-09-23T20:30:15.970Z,87.50
2017-09-23T20:32:49.545Z,87.40
2017-09-23T20:35:18.443Z,87.70
2017-09-23T20:37:57.229Z,87.60
2017-09-23T20:40:35.054Z,87.70
2017-09-23T20:43:05.792Z,88.10
2017-09-23T20:45:37.867Z,88.80
2017-09-23T20:50:44.238Z,88.60
2017-09-23T20:53:13.209Z,88.70
2017-09-23T20:55:42.117Z,89.00
2017-09-23T21:01:05.706Z,89.10
2017-09-23T21:03:39.214Z,89.50
2017-09-23T21:06:13.142Z,89.70
2017-09-23T21:08:47.247Z,89.80
2017-09-23T21:11:18.032Z,89.70
2017-09-23T21:13:46.880Z,89.30
2017-09-23T21:19:11.194Z,89.00
2017-09-23T21:21:43.956Z,89.00
2017-09-23T21:24:12.879Z,89.20
2017-09-23T21:26:44.716Z,89.10
2017-09-23T21:29:15.145Z,89.00
2017-09-23T21:31:45.213Z,88.60
2017-09-23T21:34:14.068Z,88.30
2017-09-23T21:39:17.789Z,88.30
2017-09-23T21:41:47.677Z,87.90
2017-09-23T21:44:17.612Z,88.50
2017-09-23T21:46:46.497Z,88.10
2017-09-23T21:49:15.590Z,88.00
2017-09-23T21:51:45.200Z,87.90
2017-09-23T21:54:16.400Z,88.30
2017-09-23T21:56:45.240Z,87.70
2017-09-23T21:59:14.921Z,87.50
2017-09-23T22:01:44.627Z,87.30
2017-09-23T22:04:15.415Z,87.70
2017-09-23T22:06:45.864Z,88.00
2017-09-23T22:09:14.716Z,88.40
2017-09-23T22:11:44.321Z,88.20
2017-09-23T22:14:13.177Z,88.10
2017-09-23T22:16:42.053Z,88.10
2017-09-23T22:19:10.891Z,88.10
2017-09-23T22:21:39.788Z,88.30
2017-09-23T22:24:09.635Z,88.20
2017-09-23T22:26:38.910Z,88.40
2017-09-23T22:29:07.764Z,88.50
2017-09-23T22:31:37.199Z,88.40
2017-09-23T22:34:06.051Z,88.30
2017-09-23T22:36:34.923Z,88.50
2017-09-23T22:39:03.261Z,88.50
2017-09-23T22:41:32.112Z,88.60
2017-09-23T22:44:01.788Z,88.80
2017-09-23T22:46:30.661Z,88.70
2017-09-23T22:48:59.536Z,88.70
2017-09-23T22:51:28.396Z,88.90
2017-09-23T22:53:57.839Z,89.60
2017-09-23T22:56:26.368Z,89.60
2017-09-23T22:58:55.234Z,89.90
2017-09-23T23:01:24.104Z,90.00
2017-09-23T23:03:52.993Z,90.30
2017-09-23T23:06:22.091Z,90.60
2017-09-23T23:08:50.965Z,90.60
2017-09-23T23:11:21.234Z,90.70
2017-09-23T23:13:50.099Z,90.70
2017-09-23T23:16:18.956Z,91.00
2017-09-23T23:18:48.601Z,91.20
2017-09-23T23:21:17.459Z,90.90
2017-09-23T23:23:46.335Z,90.80
2017-09-23T23:26:15.209Z,90.90
2017-09-23T23:28:44.073Z,91.00
2017-09-23T23:31:12.910Z,91.00
2017-09-23T23:33:41.758Z,91.00
2017-09-23T23:36:10.628Z,91.00
2017-09-23T23:38:40.236Z,90.90
2017-09-23T23:41:09.839Z,91.10
2017-09-23T23:43:39.469Z,91.20
2017-09-23T23:46:08.315Z,91.10
2017-09-23T23:48:37.153Z,91.10
2017-09-23T23:51:06.807Z,91.20
2017-09-23T23:53:35.768Z,91.20
2017-09-23T23:56:04.741Z,91.20
2017-09-23T23:58:37.732Z,91.30
